createdAt,value
2018-03-27T00:01:46.601Z,100969.73
2018-03-27T00:04:12.637Z,100981.34
2018-03-27T00:06:38.747Z,100973.51
2018-03-27T00:09:04.775Z,100978.58
2018-03-27T00:11:31.035Z,100977.66
2018-03-27T00:13:57.108Z,100978.92
2018-03-27T00:16:23.165Z,100968.48
2018-03-27T00:18:49.274Z,100966.61
2018-03-27T00:21:15.313Z,100975.71
2018-03-27T00:23:41.371Z,100972.19
2018-03-27T00:26:07.519Z,100976.85
2018-03-27T00:28:45.732Z,100973.22
2018-03-27T00:31:24.209Z,100975.90
2018-03-27T00:34:02.753Z,100977.14
2018-03-27T00:36:41.249Z,100979.70
2018-03-27T00:39:19.778Z,100982.34
2018-03-27T00:44:58.153Z,100986.48
2018-03-27T00:47:24.239Z,100985.69
2018-03-27T00:49:50.286Z,100992.05
2018-03-27T00:52:16.321Z,100995.13
2018-03-27T00:54:42.421Z,100990.32
2018-03-27T00:57:08.460Z,100994.16
2018-03-27T00:59:34.505Z,100986.84
2018-03-27T01:02:00.589Z,100989.36
2018-03-27T01:04:26.659Z,100990.57
2018-03-27T01:06:52.687Z,100987.09
2018-03-27T01:09:18.765Z,100980.13
2018-03-27T01:11:44.835Z,100986.11
2018-03-27T01:14:10.900Z,100986.91
2018-03-27T01:16:36.922Z,100989.91
2018-03-27T01:19:02.992Z,100981.25
2018-03-27T01:21:29.045Z,100985.87
2018-03-27T01:23:55.081Z,100981.61
2018-03-27T01:26:21.127Z,100981.09
2018-03-27T01:28:47.199Z,100975.02
2018-03-27T01:31:13.258Z,100975.41
2018-03-27T01:33:39.330Z,100969.28
2018-03-27T01:36:05.388Z,100970.93
2018-03-27T01:38:31.560Z,100973.92
2018-03-27T01:40:57.614Z,100972.20
2018-03-27T01:43:23.679Z,100974.80
2018-03-27T01:45:49.851Z,100973.05
2018-03-27T01:48:15.901Z,100973.92
2018-03-27T01:50:41.968Z,100972.61
2018-03-27T01:53:07.994Z,100971.23
2018-03-27T01:55:34.059Z,100972.44
2018-03-27T01:58:00.274Z,100974.61
2018-03-27T02:00:26.363Z,100972.52
2018-03-27T02:02:52.420Z,100971.62
2018-03-27T02:05:18.472Z,100966.86
2018-03-27T02:07:44.596Z,100968.17
2018-03-27T02:10:10.826Z,100963.89
2018-03-27T02:12:42.950Z,100962.58
2018-03-27T02:15:14.964Z,100964.72
2018-03-27T02:17:47.173Z,100965.13
2018-03-27T02:20:19.572Z,100959.97
2018-03-27T02:22:51.818Z,100962.84
2018-03-27T02:25:17.873Z,100961.58
2018-03-27T02:27:44.085Z,100960.20
2018-03-27T02:30:10.087Z,100960.56
2018-03-27T02:32:36.141Z,100960.12
2018-03-27T02:35:02.180Z,100962.61
2018-03-27T02:37:28.257Z,100962.67
2018-03-27T02:39:54.278Z,100960.17
2018-03-27T02:42:20.528Z,100966.66
2018-03-27T02:44:46.599Z,100966.54
2018-03-27T02:47:12.768Z,100968.63
2018-03-27T02:49:38.932Z,100969.03
2018-03-27T02:52:04.952Z,100968.59
2018-03-27T02:54:30.989Z,100967.24
2018-03-27T02:56:57.181Z,100968.06
2018-03-27T02:59:23.223Z,100966.33
2018-03-27T03:01:49.441Z,100961.61
2018-03-27T03:04:15.474Z,100955.47
2018-03-27T03:06:41.583Z,100956.73
2018-03-27T03:09:07.612Z,100957.11
2018-03-27T03:11:33.757Z,100964.07
2018-03-27T03:13:59.810Z,100969.13
2018-03-27T03:16:25.888Z,100966.14
2018-03-27T03:18:51.938Z,100969.61
2018-03-27T03:21:17.942Z,100965.73
2018-03-27T03:23:44.186Z,100969.95
2018-03-27T03:26:10.257Z,100957.87
2018-03-27T03:28:36.310Z,100957.27
2018-03-27T03:31:02.364Z,100966.36
2018-03-27T03:33:28.419Z,100965.86
2018-03-27T03:35:54.616Z,100962.30
2018-03-27T03:38:20.683Z,100964.41
2018-03-27T03:40:46.753Z,100966.95
2018-03-27T03:43:12.816Z,100956.59
2018-03-27T03:45:38.903Z,100957.92
2018-03-27T03:48:04.940Z,100954.42
2018-03-27T03:50:30.984Z,100948.97
2018-03-27T03:52:57.040Z,100955.82
2018-03-27T03:55:23.085Z,100959.31
2018-03-27T03:57:49.406Z,100950.39
2018-03-27T04:00:15.423Z,100945.67
2018-03-27T04:02:41.627Z,100955.58
2018-03-27T04:05:07.913Z,100949.10
2018-03-27T04:07:33.961Z,100954.70
2018-03-27T04:10:00.029Z,100954.70
2018-03-27T04:12:26.068Z,100945.16
2018-03-27T04:14:52.141Z,100949.51
2018-03-27T04:17:18.337Z,100940.34
2018-03-27T04:19:44.401Z,100947.57
2018-03-27T04:22:10.636Z,100947.16
2018-03-27T04:24:36.707Z,100951.00
2018-03-27T04:27:02.808Z,100951.74
2018-03-27T04:29:28.909Z,100945.33
2018-03-27T04:31:54.976Z,100951.78
2018-03-27T04:34:21.040Z,100943.13
2018-03-27T04:36:47.097Z,100953.00
2018-03-27T04:39:13.149Z,100954.58
2018-03-27T04:41:39.258Z,100954.92
2018-03-27T04:44:05.321Z,100948.87
2018-03-27T04:46:31.422Z,100948.00
2018-03-27T04:48:57.500Z,100950.20
2018-03-27T04:51:23.598Z,100950.72
2018-03-27T04:53:49.658Z,100948.52
2018-03-27T04:56:15.834Z,100953.16
2018-03-27T04:58:41.876Z,100951.38
2018-03-27T05:01:07.976Z,100954.44
2018-03-27T05:03:34.018Z,100960.19
2018-03-27T05:06:00.082Z,100959.52
2018-03-27T05:08:26.152Z,100960.33
2018-03-27T05:10:52.234Z,100957.75
2018-03-27T05:13:18.275Z,100955.98
2018-03-27T05:15:44.297Z,100952.45
2018-03-27T05:18:10.369Z,100956.39
2018-03-27T05:20:36.391Z,100954.26
2018-03-27T05:23:02.609Z,100958.97
2018-03-27T05:25:29.264Z,100958.13
2018-03-27T05:27:55.320Z,100956.80
2018-03-27T05:30:21.343Z,100965.41
2018-03-27T05:32:47.418Z,100961.98
2018-03-27T05:35:13.460Z,100957.72
2018-03-27T05:37:39.498Z,100957.38
2018-03-27T05:40:05.754Z,100961.73
2018-03-27T05:42:31.812Z,100951.50
2018-03-27T05:44:57.920Z,100953.73
2018-03-27T05:47:23.947Z,100942.14
2018-03-27T05:49:50.012Z,100947.36
2018-03-27T05:52:16.144Z,100953.55
2018-03-27T05:54:42.146Z,100954.91
2018-03-27T05:57:08.210Z,100948.05
2018-03-27T05:59:34.291Z,100946.45
2018-03-27T06:02:00.386Z,100944.35
2018-03-27T06:04:26.484Z,100936.14
2018-03-27T06:06:52.570Z,100942.14
2018-03-27T06:09:18.627Z,100932.75
2018-03-27T06:11:44.702Z,100931.15
2018-03-27T06:14:10.820Z,100936.06
2018-03-27T06:16:37.094Z,100930.97
2018-03-27T06:19:03.186Z,100932.19
2018-03-27T06:21:29.268Z,100938.67
2018-03-27T06:23:55.364Z,100940.88
2018-03-27T06:26:21.456Z,100938.86
2018-03-27T06:28:47.509Z,100935.53
2018-03-27T06:31:13.673Z,100936.50
2018-03-27T06:33:39.827Z,100935.65
2018-03-27T06:36:05.912Z,100937.03
2018-03-27T06:38:32.121Z,100937.09
2018-03-27T06:40:58.202Z,100928.64
2018-03-27T06:43:24.246Z,100934.73
2018-03-27T06:45:50.300Z,100927.95
2018-03-27T06:48:16.347Z,100934.05
2018-03-27T06:50:42.428Z,100932.03
2018-03-27T06:53:08.480Z,100931.58
2018-03-27T06:55:34.662Z,100932.55
2018-03-27T06:58:00.696Z,100928.00
2018-03-27T07:00:26.792Z,100930.71
2018-03-27T07:02:52.879Z,100921.66
2018-03-27T07:05:18.950Z,100908.98
2018-03-27T07:07:44.990Z,100916.51
2018-03-27T07:10:11.055Z,100920.97
2018-03-27T07:12:37.107Z,100917.67
2018-03-27T07:15:03.241Z,100913.28
2018-03-27T07:17:29.310Z,100915.52
2018-03-27T07:19:55.389Z,100900.02
2018-03-27T07:22:21.470Z,100907.84
2018-03-27T07:24:47.538Z,100904.90
2018-03-27T07:27:13.627Z,100900.21
2018-03-27T07:29:39.686Z,100897.70
2018-03-27T07:32:05.774Z,100899.08
2018-03-27T07:34:31.815Z,100900.38
2018-03-27T07:36:57.896Z,100901.25
2018-03-27T07:39:23.959Z,100905.62
2018-03-27T07:41:50.727Z,100907.41
2018-03-27T07:44:16.833Z,100901.83
2018-03-27T07:46:43.068Z,100899.72
2018-03-27T07:49:09.123Z,100901.92
2018-03-27T07:51:35.341Z,100904.11
2018-03-27T07:54:01.411Z,100901.13
2018-03-27T07:56:27.699Z,100907.22
2018-03-27T07:58:53.756Z,100897.35
2018-03-27T08:01:19.882Z,100902.57
2018-03-27T08:03:45.963Z,100901.30
2018-03-27T08:06:12.102Z,100899.59
2018-03-27T08:08:38.208Z,100899.19
2018-03-27T08:11:04.335Z,100899.22
2018-03-27T08:13:45.234Z,100890.59
2018-03-27T08:16:11.322Z,100891.90
2018-03-27T08:18:37.557Z,100887.55
2018-03-27T08:21:03.589Z,100888.46
2018-03-27T08:23:29.706Z,100881.97
2018-03-27T08:25:55.734Z,100884.59
2018-03-27T08:28:21.841Z,100880.27
2018-03-27T08:30:47.855Z,100870.31
2018-03-27T08:33:13.949Z,100870.77
2018-03-27T08:35:40.010Z,100872.50
2018-03-27T08:38:06.071Z,100862.96
2018-03-27T08:40:32.296Z,100862.11
2018-03-27T08:42:58.374Z,100866.84
2018-03-27T08:45:24.463Z,100867.28
2018-03-27T08:47:50.528Z,100859.45
2018-03-27T08:50:16.593Z,100864.65
2018-03-27T08:52:42.634Z,100861.18
2018-03-27T08:55:08.732Z,100856.39
2018-03-27T08:57:34.762Z,100852.91
2018-03-27T09:00:00.810Z,100850.26
2018-03-27T09:02:27.064Z,100852.89
2018-03-27T09:04:53.229Z,100854.14
2018-03-27T09:07:19.293Z,100845.42
2018-03-27T09:09:45.347Z,100850.59
2018-03-27T09:12:11.478Z,100845.32
2018-03-27T09:14:37.575Z,100842.73
2018-03-27T09:17:03.757Z,100839.69
2018-03-27T09:19:29.962Z,100842.64
2018-03-27T09:21:55.987Z,100840.87
2018-03-27T09:24:22.046Z,100840.78
2018-03-27T09:26:48.079Z,100836.02
2018-03-27T09:29:14.128Z,100833.89
2018-03-27T09:31:40.168Z,100823.92
2018-03-27T09:34:06.216Z,100820.42
2018-03-27T09:36:32.430Z,100822.54
2018-03-27T09:38:58.504Z,100824.80
2018-03-27T09:41:24.579Z,100822.52
2018-03-27T09:43:50.633Z,100809.39
2018-03-27T09:46:16.674Z,100811.96
2018-03-27T09:48:42.751Z,100805.42
2018-03-27T09:51:08.829Z,100802.30
2018-03-27T09:53:34.864Z,100800.94
2018-03-27T09:56:00.897Z,100801.62
2018-03-27T09:58:27.246Z,100797.19
2018-03-27T10:00:53.305Z,100793.17
2018-03-27T10:03:19.349Z,100788.34
2018-03-27T10:05:45.406Z,100788.77
2018-03-27T10:08:11.499Z,100784.37
2018-03-27T10:10:37.565Z,100776.80
2018-03-27T10:13:03.638Z,100778.44
2018-03-27T10:15:29.723Z,100777.50
2018-03-27T10:17:55.750Z,100778.30
2018-03-27T10:20:21.803Z,100771.09
2018-03-27T10:22:47.857Z,100770.92
2018-03-27T10:25:13.890Z,100777.48
2018-03-27T10:27:39.918Z,100763.56
2018-03-27T10:30:06.204Z,100765.52
2018-03-27T10:32:32.402Z,100755.34
2018-03-27T10:34:58.438Z,100758.31
2018-03-27T10:37:24.507Z,100751.24
2018-03-27T10:39:50.592Z,100752.66
2018-03-27T10:42:16.651Z,100757.05
2018-03-27T10:44:42.800Z,100755.84
2018-03-27T10:47:08.833Z,100746.61
2018-03-27T10:49:34.980Z,100744.04
2018-03-27T10:52:01.189Z,100738.94
2018-03-27T10:54:27.237Z,100742.77
2018-03-27T10:56:53.480Z,100741.98
2018-03-27T10:59:19.516Z,100739.03
2018-03-27T11:01:45.604Z,100732.05
2018-03-27T11:04:11.617Z,100733.16
2018-03-27T11:06:37.759Z,100734.16
2018-03-27T11:09:03.805Z,100732.78
2018-03-27T11:11:30.553Z,100723.80
2018-03-27T11:13:56.863Z,100720.08
2018-03-27T11:16:22.896Z,100709.96
2018-03-27T11:18:48.930Z,100709.30
2018-03-27T11:21:15.092Z,100707.70
2018-03-27T11:23:41.182Z,100703.03
2018-03-27T11:26:07.261Z,100695.97
2018-03-27T11:28:33.303Z,100685.59
2018-03-27T11:30:59.431Z,100687.94
2018-03-27T11:33:25.509Z,100694.43
2018-03-27T11:35:51.772Z,100693.66
2018-03-27T11:38:17.808Z,100695.13
2018-03-27T11:40:44.088Z,100687.89
2018-03-27T11:43:10.132Z,100682.48
2018-03-27T11:45:36.219Z,100678.75
2018-03-27T11:48:02.283Z,100661.07
2018-03-27T11:50:28.389Z,100663.45
2018-03-27T11:52:54.443Z,100668.89
2018-03-27T11:55:20.475Z,100667.34
2018-03-27T11:57:46.540Z,100670.64
2018-03-27T12:00:12.598Z,100663.52
2018-03-27T12:02:38.746Z,100659.04
2018-03-27T12:05:05.004Z,100655.50
2018-03-27T12:07:31.063Z,100653.64
2018-03-27T12:09:57.130Z,100656.62
2018-03-27T12:12:23.173Z,100641.00
2018-03-27T12:14:49.279Z,100643.92
2018-03-27T12:17:15.374Z,100638.92
2018-03-27T12:19:41.438Z,100632.78
2018-03-27T12:22:07.536Z,100623.75
2018-03-27T12:24:33.559Z,100621.52
2018-03-27T12:26:59.622Z,100621.07
2018-03-27T12:29:25.664Z,100608.55
2018-03-27T12:31:51.702Z,100608.70
2018-03-27T12:34:17.710Z,100609.31
2018-03-27T12:36:43.790Z,100599.37
2018-03-27T12:39:09.834Z,100596.70
2018-03-27T12:41:35.922Z,100592.34
2018-03-27T12:44:03.115Z,100582.59
2018-03-27T12:46:29.170Z,100575.59
2018-03-27T12:48:55.230Z,100570.76
2018-03-27T12:51:21.342Z,100568.84
2018-03-27T12:53:47.412Z,100561.47
2018-03-27T12:56:13.434Z,100567.93
2018-03-27T12:58:39.496Z,100547.75
2018-03-27T13:01:05.561Z,100549.51
2018-03-27T13:03:31.660Z,100549.00
2018-03-27T13:05:57.981Z,100545.37
2018-03-27T13:08:24.028Z,100532.00
2018-03-27T13:10:50.106Z,100525.45
2018-03-27T13:13:16.173Z,100520.92
2018-03-27T13:15:42.328Z,100523.92
2018-03-27T13:18:08.353Z,100517.78
2018-03-27T13:20:34.373Z,100519.23
2018-03-27T13:23:00.491Z,100510.42
2018-03-27T13:25:26.497Z,100517.71
2018-03-27T13:27:52.576Z,100516.30
2018-03-27T13:30:18.610Z,100510.89
2018-03-27T13:32:44.794Z,100506.83
2018-03-27T13:35:10.839Z,100503.48
2018-03-27T13:37:36.914Z,100495.58
2018-03-27T13:40:02.999Z,100493.93
2018-03-27T13:42:29.050Z,100488.55
2018-03-27T13:44:55.269Z,100489.51
2018-03-27T13:47:21.324Z,100499.80
2018-03-27T13:49:47.407Z,100488.05
2018-03-27T13:52:13.496Z,100485.38
2018-03-27T13:54:39.510Z,100471.83
2018-03-27T13:57:05.604Z,100465.88
2018-03-27T13:59:31.698Z,100465.17
2018-03-27T14:01:57.807Z,100467.83
2018-03-27T14:04:23.864Z,100473.23
2018-03-27T14:06:49.916Z,100471.62
2018-03-27T14:09:16.178Z,100480.08
2018-03-27T14:11:42.604Z,100475.20
2018-03-27T14:14:08.650Z,100459.33
2018-03-27T14:16:34.951Z,100464.91
2018-03-27T14:19:01.014Z,100461.94
2018-03-27T14:21:27.014Z,100461.17
2018-03-27T14:23:53.134Z,100454.13
2018-03-27T14:26:19.171Z,100462.02
2018-03-27T14:28:45.256Z,100453.97
2018-03-27T14:31:11.363Z,100450.02
2018-03-27T14:33:37.407Z,100451.50
2018-03-27T14:36:03.481Z,100450.23
2018-03-27T14:38:29.556Z,100446.14
2018-03-27T14:40:55.581Z,100444.36
2018-03-27T14:43:21.669Z,100452.08
2018-03-27T14:45:47.710Z,100444.36
2018-03-27T14:48:13.752Z,100446.86
2018-03-27T14:50:39.814Z,100442.09
2018-03-27T14:53:05.960Z,100429.92
2018-03-27T14:55:31.979Z,100438.41
2018-03-27T14:57:58.080Z,100429.50
2018-03-27T15:00:24.111Z,100418.55
2018-03-27T15:02:50.206Z,100414.89
2018-03-27T15:05:16.316Z,100419.63
2018-03-27T15:07:42.379Z,100422.03
2018-03-27T15:10:08.443Z,100411.97
2018-03-27T15:12:34.466Z,100409.05
2018-03-27T15:15:00.685Z,100404.89
2018-03-27T15:17:26.719Z,100406.70
2018-03-27T15:19:52.910Z,100402.14
2018-03-27T15:22:18.960Z,100399.34
2018-03-27T15:24:45.048Z,100395.49
2018-03-27T15:27:11.111Z,100393.16
2018-03-27T15:29:37.157Z,100389.52
2018-03-27T15:32:03.233Z,100388.41
2018-03-27T15:34:29.284Z,100387.61
2018-03-27T15:36:55.390Z,100380.76
2018-03-27T15:39:21.459Z,100383.71
2018-03-27T15:41:47.617Z,100381.41
2018-03-27T15:44:13.730Z,100385.48
2018-03-27T15:46:39.830Z,100384.27
2018-03-27T15:49:06.551Z,100378.63
2018-03-27T15:51:32.707Z,100382.75
2018-03-27T15:53:58.808Z,100378.00
2018-03-27T15:56:24.891Z,100369.66
2018-03-27T15:58:51.008Z,100374.03
2018-03-27T16:01:17.057Z,100362.74
2018-03-27T16:03:43.116Z,100360.95
2018-03-27T16:06:09.219Z,100363.75
2018-03-27T16:08:35.521Z,100357.05
2018-03-27T16:11:01.662Z,100354.64
2018-03-27T16:13:27.747Z,100352.48
2018-03-27T16:15:53.914Z,100348.23
2018-03-27T16:18:20.032Z,100341.28
2018-03-27T16:20:46.064Z,100335.87
2018-03-27T16:23:12.223Z,100336.28
2018-03-27T16:25:38.294Z,100335.19
2018-03-27T16:28:04.547Z,100328.72
2018-03-27T16:30:30.684Z,100329.31
2018-03-27T16:32:56.842Z,100327.12
2018-03-27T16:35:22.908Z,100316.30
2018-03-27T16:37:49.020Z,100310.19
2018-03-27T16:40:15.134Z,100312.97
2018-03-27T16:42:41.341Z,100311.09
2018-03-27T16:45:07.476Z,100309.59
2018-03-27T16:47:34.205Z,100311.84
2018-03-27T16:50:00.406Z,100315.08
2018-03-27T16:52:26.542Z,100315.63
2018-03-27T16:54:52.639Z,100309.05
2018-03-27T16:57:18.750Z,100320.03
2018-03-27T16:59:44.807Z,100321.70
2018-03-27T17:02:10.900Z,100322.63
2018-03-27T17:04:37.103Z,100319.23
2018-03-27T17:07:03.243Z,100313.16
2018-03-27T17:09:29.554Z,100310.26
2018-03-27T17:11:55.607Z,100305.90
2018-03-27T17:14:21.685Z,100303.79
2018-03-27T17:16:47.747Z,100305.02
2018-03-27T17:19:13.906Z,100307.49
2018-03-27T17:21:39.972Z,100304.11
2018-03-27T17:24:06.072Z,100299.45
2018-03-27T17:26:32.112Z,100304.33
2018-03-27T17:28:58.325Z,100302.31
2018-03-27T17:31:24.515Z,100301.81
2018-03-27T17:33:50.669Z,100304.86
2018-03-27T17:36:16.737Z,100305.77
2018-03-27T17:38:42.964Z,100305.41
2018-03-27T17:41:09.150Z,100296.83
2018-03-27T17:43:35.245Z,100301.66
2018-03-27T17:46:01.332Z,100298.64
2018-03-27T17:48:27.475Z,100294.89
2018-03-27T17:50:53.791Z,100299.28
2018-03-27T17:53:19.898Z,100297.74
2018-03-27T17:55:45.985Z,100294.05
2018-03-27T17:58:12.072Z,100296.67
2018-03-27T18:00:38.230Z,100293.18
2018-03-27T18:03:05.390Z,100294.52
2018-03-27T18:05:31.619Z,100288.52
2018-03-27T18:07:57.740Z,100290.09
2018-03-27T18:10:23.889Z,100290.56
2018-03-27T18:12:50.111Z,100285.73
2018-03-27T18:15:16.258Z,100291.47
2018-03-27T18:17:42.374Z,100283.22
2018-03-27T18:20:08.462Z,100290.28
2018-03-27T18:22:34.725Z,100289.02
2018-03-27T18:25:00.917Z,100282.88
2018-03-27T18:27:27.026Z,100284.81
2018-03-27T18:29:53.269Z,100287.83
2018-03-27T18:32:19.619Z,100279.96
2018-03-27T18:34:45.743Z,100279.16
2018-03-27T18:37:12.254Z,100270.94
2018-03-27T18:39:38.712Z,100274.92
2018-03-27T18:42:05.136Z,100269.23
2018-03-27T18:44:32.153Z,100269.67
2018-03-27T18:46:58.307Z,100273.63
2018-03-27T18:49:24.572Z,100270.23
2018-03-27T18:51:50.662Z,100268.48
2018-03-27T18:54:16.767Z,100267.34
2018-03-27T18:56:42.950Z,100266.44
2018-03-27T18:59:09.650Z,100261.22
2018-03-27T19:01:36.598Z,100267.97
2018-03-27T19:04:02.981Z,100270.14
2018-03-27T19:06:30.089Z,100264.48
2018-03-27T19:08:56.154Z,100263.52
2018-03-27T19:11:22.352Z,100251.80
2018-03-27T19:13:49.298Z,100251.89
2018-03-27T19:16:15.412Z,100256.20
2018-03-27T19:18:41.514Z,100248.94
2018-03-27T19:21:07.710Z,100247.20
2018-03-27T19:23:33.803Z,100248.47
2018-03-27T19:25:59.874Z,100251.61
2018-03-27T19:28:26.076Z,100253.81
2018-03-27T19:30:52.162Z,100243.12
2018-03-27T19:33:18.240Z,100243.98
2018-03-27T19:35:44.345Z,100246.60
2018-03-27T19:38:11.110Z,100242.12
2018-03-27T19:40:37.374Z,100236.19
2018-03-27T19:43:03.524Z,100241.88
2018-03-27T19:45:29.870Z,100237.05
2018-03-27T19:47:57.110Z,100237.92
2018-03-27T19:50:24.139Z,100233.58
2018-03-27T19:52:50.239Z,100226.58
2018-03-27T19:55:16.744Z,100222.66
2018-03-27T19:57:43.861Z,100228.35
2018-03-27T20:00:10.041Z,100216.23
2018-03-27T20:02:36.159Z,100223.59
2018-03-27T20:05:02.493Z,100218.38
2018-03-27T20:07:28.660Z,100217.56
2018-03-27T20:09:54.871Z,100219.34
2018-03-27T20:12:21.066Z,100220.61
2018-03-27T20:14:47.151Z,100222.78
2018-03-27T20:17:13.243Z,100230.96
2018-03-27T20:19:39.490Z,100227.64
2018-03-27T20:22:05.609Z,100225.39
2018-03-27T20:24:31.756Z,100226.73
2018-03-27T20:26:57.890Z,100223.34
2018-03-27T20:29:24.080Z,100217.66
2018-03-27T20:31:50.193Z,100225.98
2018-03-27T20:34:16.364Z,100223.92
2018-03-27T20:36:42.427Z,100221.94
2018-03-27T20:39:08.536Z,100229.39
2018-03-27T20:41:34.667Z,100225.97
2018-03-27T20:44:00.827Z,100216.58
2018-03-27T20:46:27.014Z,100218.77
2018-03-27T20:48:53.142Z,100219.73
2018-03-27T20:51:19.345Z,100211.56
2018-03-27T20:53:45.427Z,100213.12
2018-03-27T20:56:11.486Z,100208.30
2018-03-27T20:58:37.622Z,100197.55
2018-03-27T21:01:03.731Z,100210.84
2018-03-27T21:03:29.984Z,100203.95
2018-03-27T21:05:56.079Z,100207.13
2018-03-27T21:08:22.232Z,100203.30
2018-03-27T21:10:49.374Z,100199.19
2018-03-27T21:13:15.510Z,100201.05
2018-03-27T21:15:41.637Z,100196.78
2018-03-27T21:18:07.715Z,100202.16
2018-03-27T21:20:34.801Z,100195.61
2018-03-27T21:23:00.936Z,100192.16
2018-03-27T21:25:27.005Z,100193.19
2018-03-27T21:27:53.072Z,100196.27
2018-03-27T21:30:19.199Z,100203.28
2018-03-27T21:32:45.279Z,100202.50
2018-03-27T21:35:11.395Z,100201.35
2018-03-27T21:37:37.688Z,100196.58
2018-03-27T21:40:03.981Z,100201.30
2018-03-27T21:42:30.049Z,100198.41
2018-03-27T21:44:56.236Z,100197.08
2018-03-27T21:47:22.345Z,100200.63
2018-03-27T21:49:48.394Z,100194.61
2018-03-27T21:52:15.203Z,100192.13
2018-03-27T21:54:41.274Z,100185.67
2018-03-27T21:57:07.321Z,100188.69
2018-03-27T21:59:33.398Z,100173.56
2018-03-27T22:01:59.532Z,100182.33
2018-03-27T22:04:25.658Z,100175.44
2018-03-27T22:06:51.877Z,100166.37
2018-03-27T22:09:17.932Z,100170.87
2018-03-27T22:11:44.038Z,100163.11
2018-03-27T22:14:10.100Z,100161.80
2018-03-27T22:16:36.275Z,100164.86
2018-03-27T22:19:02.311Z,100154.12
2018-03-27T22:21:28.331Z,100149.37
2018-03-27T22:23:54.364Z,100151.11
2018-03-27T22:26:20.410Z,100147.19
2018-03-27T22:28:46.480Z,100146.80
2018-03-27T22:31:12.495Z,100143.28
2018-03-27T22:33:38.565Z,100139.53
2018-03-27T22:36:04.733Z,100138.61
2018-03-27T22:38:30.786Z,100136.47
2018-03-27T22:40:56.871Z,100128.20
2018-03-27T22:43:22.967Z,100121.73
2018-03-27T22:45:49.031Z,100120.45
2018-03-27T22:48:15.134Z,100117.48
2018-03-27T22:50:41.212Z,100110.45
2018-03-27T22:53:07.237Z,100109.08
2018-03-27T22:55:33.301Z,100106.11
2018-03-27T22:57:59.364Z,100102.59
2018-03-27T23:00:25.438Z,100095.61
2018-03-27T23:02:51.489Z,100097.89
2018-03-27T23:05:17.565Z,100098.36
2018-03-27T23:07:43.819Z,100087.02
2018-03-27T23:10:09.902Z,100091.82
2018-03-27T23:12:35.958Z,100086.64
2018-03-27T23:15:02.102Z,100085.80
2018-03-27T23:17:28.222Z,100081.09
2018-03-27T23:19:54.261Z,100078.52
2018-03-27T23:22:30.518Z,100070.28
2018-03-27T23:24:56.578Z,100075.92
2018-03-27T23:27:22.612Z,100069.39
2018-03-27T23:29:48.680Z,100068.16
2018-03-27T23:32:14.739Z,100066.45
2018-03-27T23:34:40.885Z,100068.61
2018-03-27T23:37:06.954Z,100062.18
2018-03-27T23:39:33.025Z,100058.66
2018-03-27T23:41:59.138Z,100059.50
2018-03-27T23:44:25.199Z,100054.75
2018-03-27T23:46:51.484Z,100060.95
2018-03-27T23:49:17.532Z,100053.94
2018-03-27T23:51:43.587Z,100056.20
2018-03-27T23:54:09.799Z,100056.12
2018-03-27T23:56:35.919Z,100051.84
2018-03-27T23:59:01.934Z,100042.90
